International Virtual Aviation Organisation

Eastern Europe and Northern Asia MCD

 

Карточка аэропорта URMN

Внимание!
Информация на этой странице в стадии наполнения.
Если вы не увидели какой-то информации, или заметили неточность - пожалуйста сообщите нам!
Спасибо!
Команда RU-STAFF
Название аэропортаНальчик
Название аэропорта (англ.)Nalchik
Превышение445 ft. (135.6 m.)
Координаты43°30.798', 43°38.298'
Высота перехода1000m
Эшелон перехода60
Коды ответчика1001-1007
Зона ОрВДРостов-на-Дону РПИ (URRV)
Данные METARURMN 110300Z 08001MPS 1000 BR OVC002 05/05 Q1017 R24/////// NOSIG RMK QBB080 MT OBSC OBST OBSC QFE727
Проноз погоды (TAF)URMN 212300Z 2100/2209 22003MPS 9999 BKN020 TEMPO 2200/2206 2000 BR BKN003
NOTAMshow/hide NOTAM
AWOS   TABLE

Информация о ВПП

ВПП Длина ВПП (м.) Покрытие Курс ВПП Частота ILS
062200Асфальтобетон57 
242200Асфальтобетон237110.5

Диспетчерские позиции

Позывной Наименование органа УВД Частота
URMN_TWRНальчик-Старт/Посадка118.3
URMN_APPНальчик - Подход126.9



Спутниковое изображение